createdAt,value
2017-05-07T00:01:08.168Z,10.68
2017-05-07T00:03:37.712Z,9.23
2017-05-07T00:06:07.275Z,7.88
2017-05-07T00:08:36.816Z,8.97
2017-05-07T00:11:06.357Z,7.40
2017-05-07T00:13:35.888Z,7.68
2017-05-07T00:16:05.440Z,7.12
2017-05-07T00:18:34.977Z,8.13
2017-05-07T00:21:04.552Z,6.63
2017-05-07T00:23:34.076Z,8.73
2017-05-07T00:26:03.636Z,6.50
2017-05-07T00:28:33.285Z,6.55
2017-05-07T00:31:02.840Z,6.35
2017-05-07T00:33:32.375Z,5.37
2017-05-07T00:36:02.664Z,4.57
2017-05-07T00:38:32.216Z,5.02
2017-05-07T00:41:02.487Z,5.40
2017-05-07T00:43:32.043Z,5.85
2017-05-07T00:46:01.580Z,5.33
2017-05-07T00:48:31.292Z,5.03
2017-05-07T00:51:00.823Z,5.15
2017-05-07T00:53:30.356Z,4.87
2017-05-07T00:56:00.639Z,4.18
2017-05-07T00:58:30.172Z,5.08
2017-05-07T01:01:00.462Z,4.73
2017-05-07T01:03:29.987Z,7.92
2017-05-07T01:06:00.500Z,4.63
2017-05-07T01:08:30.039Z,4.93
2017-05-07T01:10:59.784Z,4.52
2017-05-07T01:13:29.323Z,5.55
2017-05-07T01:15:58.891Z,3.92
2017-05-07T01:18:28.423Z,4.70
2017-05-07T01:20:57.959Z,4.65
2017-05-07T01:23:28.229Z,4.42
2017-05-07T01:25:57.783Z,5.35
2017-05-07T01:28:27.311Z,4.95
2017-05-07T01:30:56.901Z,4.75
2017-05-07T01:33:26.399Z,4.45
2017-05-07T01:35:56.791Z,4.52
2017-05-07T01:38:26.400Z,4.70
2017-05-07T01:40:55.903Z,5.10
2017-05-07T01:43:25.438Z,6.12
2017-05-07T01:45:55.715Z,4.80
2017-05-07T01:48:25.272Z,5.83
2017-05-07T01:50:55.559Z,4.45
2017-05-07T01:53:25.118Z,5.23
2017-05-07T01:55:54.642Z,6.00
2017-05-07T01:58:24.182Z,6.07
2017-05-07T02:00:53.711Z,5.68
2017-05-07T02:03:24.103Z,5.77
2017-05-07T02:05:53.590Z,5.93
2017-05-07T02:08:23.130Z,5.20
2017-05-07T02:10:52.674Z,5.38
2017-05-07T02:13:22.212Z,5.60
2017-05-07T02:15:51.755Z,6.83
2017-05-07T02:18:22.023Z,6.13
2017-05-07T02:20:51.575Z,7.85
2017-05-07T02:23:21.098Z,6.82
2017-05-07T02:25:50.642Z,7.27
2017-05-07T02:28:20.174Z,6.85
2017-05-07T02:30:50.690Z,8.48
2017-05-07T02:33:20.210Z,7.35
2017-05-07T02:35:49.778Z,7.20
2017-05-07T02:38:19.350Z,7.72
2017-05-07T02:40:49.634Z,10.08
2017-05-07T02:43:19.179Z,9.38
2017-05-07T02:45:49.450Z,8.28
2017-05-07T02:48:19.038Z,9.10
2017-05-07T02:50:49.279Z,9.58
2017-05-07T02:53:19.159Z,8.82
2017-05-07T02:55:48.691Z,9.58
2017-05-07T02:58:18.218Z,9.45
2017-05-07T03:00:47.778Z,8.53
2017-05-07T03:03:17.307Z,10.12
2017-05-07T03:05:46.884Z,10.25
2017-05-07T03:08:16.417Z,11.25
2017-05-07T03:10:45.993Z,9.92
2017-05-07T03:13:15.549Z,11.82
2017-05-07T03:15:45.109Z,10.50
2017-05-07T03:18:14.646Z,11.73
2017-05-07T03:20:44.187Z,11.40
2017-05-07T03:23:13.741Z,15.42
2017-05-07T03:25:43.285Z,12.70
2017-05-07T03:28:12.841Z,12.78
2017-05-07T03:30:42.386Z,17.70
2017-05-07T03:33:11.933Z,14.35
2017-05-07T03:35:42.241Z,12.77
2017-05-07T03:38:12.518Z,12.18
2017-05-07T03:40:42.085Z,13.32
2017-05-07T03:43:11.617Z,15.42
2017-05-07T03:45:41.469Z,13.78
2017-05-07T03:48:11.010Z,15.80
2017-05-07T03:50:40.621Z,15.30
2017-05-07T03:53:10.169Z,16.00
2017-05-07T03:55:39.737Z,15.77
2017-05-07T03:58:09.277Z,15.70
2017-05-07T04:00:38.829Z,17.57
2017-05-07T04:03:08.369Z,16.38
2017-05-07T04:05:37.917Z,14.82
2017-05-07T04:08:08.193Z,16.42
2017-05-07T04:10:37.765Z,15.88
2017-05-07T04:13:08.153Z,16.88
2017-05-07T04:15:37.669Z,16.82
2017-05-07T04:18:07.209Z,16.15
2017-05-07T04:20:36.784Z,16.33
2017-05-07T04:23:06.321Z,17.60
2017-05-07T04:25:35.892Z,15.95
2017-05-07T04:28:05.433Z,16.77
2017-05-07T04:30:34.988Z,15.97
2017-05-07T04:33:04.529Z,16.25
2017-05-07T04:35:34.821Z,16.23
2017-05-07T04:38:04.361Z,16.22
2017-05-07T04:40:34.644Z,15.80
2017-05-07T04:43:04.210Z,17.05
2017-05-07T04:45:33.756Z,15.67
2017-05-07T04:48:03.320Z,16.80
2017-05-07T04:50:32.869Z,15.60
2017-05-07T04:53:02.408Z,17.98
2017-05-07T04:55:31.980Z,14.78
2017-05-07T04:58:01.521Z,15.83
2017-05-07T05:00:31.072Z,17.08
2017-05-07T05:03:00.652Z,15.43
2017-05-07T05:05:30.200Z,16.23
2017-05-07T05:07:59.749Z,15.73
2017-05-07T05:10:29.312Z,15.55
2017-05-07T05:12:58.848Z,16.03
2017-05-07T05:15:28.407Z,16.35
2017-05-07T05:17:57.948Z,15.83
2017-05-07T05:20:43.136Z,16.00
2017-05-07T05:26:16.633Z,14.60
2017-05-07T05:29:03.792Z,14.73
2017-05-07T05:31:36.832Z,14.63
2017-05-07T05:34:13.456Z,12.95
2017-05-07T05:36:43.029Z,12.35
2017-05-07T05:39:13.317Z,12.97
2017-05-07T05:41:42.883Z,12.38
2017-05-07T05:44:12.424Z,13.33
2017-05-07T05:46:42.036Z,12.07
2017-05-07T05:49:11.543Z,13.05
2017-05-07T05:51:41.103Z,12.25
2017-05-07T05:54:10.655Z,12.65
2017-05-07T05:56:40.224Z,13.92
2017-05-07T05:59:09.771Z,12.65
2017-05-07T06:01:39.340Z,12.95
2017-05-07T06:04:08.887Z,12.33
2017-05-07T06:06:39.187Z,12.68
2017-05-07T06:09:08.736Z,12.13
2017-05-07T06:11:38.314Z,10.58
2017-05-07T06:14:07.867Z,10.92
2017-05-07T06:16:37.715Z,12.12
2017-05-07T06:19:08.155Z,9.40
2017-05-07T06:21:37.695Z,9.53
2017-05-07T06:24:07.991Z,9.27
2017-05-07T06:26:37.540Z,9.72
2017-05-07T06:29:07.091Z,9.18
2017-05-07T06:31:36.627Z,9.18
2017-05-07T06:34:06.936Z,7.48
2017-05-07T06:36:36.467Z,8.93
2017-05-07T06:39:06.011Z,7.87
2017-05-07T06:41:35.555Z,8.65
2017-05-07T06:44:05.848Z,8.22
2017-05-07T06:46:35.383Z,9.42
2017-05-07T06:49:04.943Z,8.57
2017-05-07T06:51:34.475Z,8.33
2017-05-07T06:54:04.019Z,8.17
2017-05-07T06:56:33.863Z,7.67
2017-05-07T06:59:03.399Z,6.93
2017-05-07T07:01:32.931Z,5.50
2017-05-07T07:04:03.323Z,5.17
2017-05-07T07:06:32.836Z,4.87
2017-05-07T07:09:02.363Z,4.42
2017-05-07T07:11:32.658Z,3.55
2017-05-07T07:14:03.168Z,3.63
2017-05-07T07:16:32.724Z,3.37
2017-05-07T07:19:02.995Z,3.37
2017-05-07T07:21:32.550Z,3.13
2017-05-07T07:24:02.822Z,4.62
2017-05-07T07:26:32.375Z,3.67
2017-05-07T07:29:02.647Z,2.87
2017-05-07T07:31:32.202Z,2.80
2017-05-07T07:34:02.482Z,2.48
2017-05-07T07:36:32.023Z,3.03
2017-05-07T07:39:02.295Z,2.80
2017-05-07T07:41:31.850Z,2.88
2017-05-07T07:44:02.122Z,2.60
2017-05-07T07:46:31.656Z,2.82
2017-05-07T07:49:01.190Z,2.88
2017-05-07T07:51:31.466Z,2.98
2017-05-07T07:54:01.031Z,2.25
2017-05-07T07:56:30.555Z,3.12
2017-05-07T07:59:00.094Z,3.46
2017-05-07T08:01:29.626Z,3.58
2017-05-07T08:04:00.010Z,2.80
2017-05-07T08:06:30.086Z,2.78
2017-05-07T08:08:59.626Z,2.80
2017-05-07T08:11:29.405Z,3.88
2017-05-07T08:13:58.938Z,1.85
2017-05-07T08:16:28.495Z,2.58
2017-05-07T08:18:58.765Z,1.94
2017-05-07T08:21:28.322Z,2.36
2017-05-07T08:23:58.589Z,2.26
2017-05-07T08:26:28.445Z,4.75
2017-05-07T08:28:57.977Z,4.37
2017-05-07T08:31:28.263Z,4.90
2017-05-07T08:33:57.798Z,4.40
2017-05-07T08:36:27.357Z,4.95
2017-05-07T08:38:56.893Z,4.92
2017-05-07T08:41:27.734Z,3.95
2017-05-07T08:43:57.457Z,4.87
2017-05-07T08:46:27.014Z,5.08
2017-05-07T08:48:56.549Z,3.53
2017-05-07T08:51:26.837Z,4.27
2017-05-07T08:53:56.369Z,7.26
2017-05-07T08:56:26.653Z,4.85
2017-05-07T08:58:56.217Z,3.92
2017-05-07T09:01:26.489Z,4.76
2017-05-07T09:03:56.025Z,4.82
2017-05-07T09:06:26.855Z,3.68
2017-05-07T09:08:56.449Z,3.26
2017-05-07T09:11:25.945Z,3.04
2017-05-07T09:13:56.393Z,3.92
2017-05-07T09:16:44.249Z,3.10
2017-05-07T09:19:26.321Z,3.66
2017-05-07T09:21:56.569Z,3.55
2017-05-07T09:24:26.992Z,4.17
2017-05-07T09:26:57.301Z,3.90
2017-05-07T09:29:26.868Z,3.73
2017-05-07T09:31:56.385Z,3.76
2017-05-07T09:34:25.933Z,3.10
2017-05-07T09:36:55.485Z,3.22
2017-05-07T09:39:25.153Z,2.68
2017-05-07T09:41:55.461Z,2.80
2017-05-07T09:44:24.997Z,3.02
2017-05-07T09:46:54.528Z,4.84
2017-05-07T09:49:24.102Z,3.50
2017-05-07T09:51:54.504Z,3.53
2017-05-07T09:54:24.850Z,3.76
2017-05-07T09:56:55.404Z,3.20
2017-05-07T09:59:25.146Z,2.76
2017-05-07T10:01:54.791Z,3.02
2017-05-07T10:04:25.325Z,2.86
2017-05-07T10:06:54.929Z,2.70
2017-05-07T10:09:24.469Z,2.98
2017-05-07T10:11:54.128Z,3.44
2017-05-07T10:14:24.453Z,3.04
2017-05-07T10:16:53.984Z,3.80
2017-05-07T10:19:23.609Z,4.72
2017-05-07T10:21:53.273Z,4.13
2017-05-07T10:24:23.576Z,3.30
2017-05-07T10:26:53.213Z,4.30
2017-05-07T10:29:23.132Z,4.66
2017-05-07T10:31:53.517Z,3.50
2017-05-07T10:34:23.195Z,3.88
2017-05-07T10:36:53.592Z,4.06
2017-05-07T10:39:23.163Z,3.52
2017-05-07T10:41:52.671Z,3.88
2017-05-07T10:44:22.284Z,4.34
2017-05-07T10:46:51.959Z,3.62
2017-05-07T10:49:21.692Z,4.32
2017-05-07T10:51:51.340Z,4.12
2017-05-07T10:54:21.076Z,3.28
2017-05-07T10:56:51.468Z,3.78
2017-05-07T10:59:21.067Z,2.52
2017-05-07T11:01:50.828Z,3.36
2017-05-07T11:04:20.452Z,3.54
2017-05-07T11:06:50.024Z,3.08
2017-05-07T11:09:19.565Z,5.48
2017-05-07T11:11:49.095Z,2.46
2017-05-07T11:14:18.676Z,2.48
2017-05-07T11:16:48.208Z,2.82
2017-05-07T11:19:18.507Z,4.64
2017-05-07T11:21:48.043Z,3.08
2017-05-07T11:24:18.327Z,2.66
2017-05-07T11:26:47.855Z,5.12
2017-05-07T11:29:18.151Z,2.32
2017-05-07T11:31:47.700Z,3.08
2017-05-07T11:34:18.899Z,2.58
2017-05-07T11:36:48.448Z,3.82
2017-05-07T11:39:18.751Z,2.54
2017-05-07T11:41:48.288Z,2.62
2017-05-07T11:44:17.831Z,2.86
2017-05-07T11:46:47.367Z,2.98
2017-05-07T11:49:17.654Z,2.30
2017-05-07T11:51:47.194Z,3.40
2017-05-07T11:54:16.727Z,2.86
2017-05-07T11:56:46.588Z,2.32
2017-05-07T11:59:16.119Z,2.96
2017-05-07T12:01:46.407Z,2.40
2017-05-07T12:04:15.939Z,2.70
2017-05-07T12:06:45.471Z,2.86
2017-05-07T12:09:15.007Z,2.72
2017-05-07T12:11:44.543Z,2.80
2017-05-07T12:14:14.091Z,2.46
2017-05-07T12:16:43.623Z,2.46
2017-05-07T12:19:13.158Z,2.40
2017-05-07T12:21:42.699Z,2.92
2017-05-07T12:24:12.233Z,3.12
2017-05-07T12:26:41.763Z,3.10
2017-05-07T12:29:11.734Z,3.32
2017-05-07T12:31:41.279Z,3.16
2017-05-07T12:34:10.810Z,3.18
2017-05-07T12:36:40.343Z,3.48
2017-05-07T12:39:09.902Z,3.10
2017-05-07T12:41:39.431Z,2.48
2017-05-07T12:44:09.722Z,3.12
2017-05-07T12:46:39.255Z,2.68
2017-05-07T12:49:08.786Z,2.44
2017-05-07T12:51:38.322Z,2.24
2017-05-07T12:54:07.878Z,2.46
2017-05-07T12:56:38.154Z,2.66
2017-05-07T12:59:07.726Z,2.82
2017-05-07T13:01:37.255Z,2.10
2017-05-07T13:04:06.795Z,2.90
2017-05-07T13:06:36.322Z,2.80
2017-05-07T13:09:06.615Z,4.92
2017-05-07T13:11:36.150Z,2.06
2017-05-07T13:14:06.446Z,2.20
2017-05-07T13:16:36.079Z,2.44
2017-05-07T13:19:06.382Z,2.58
2017-05-07T13:21:35.909Z,2.40
2017-05-07T13:24:06.190Z,2.70
2017-05-07T13:26:35.826Z,2.26
2017-05-07T13:29:05.374Z,3.36
2017-05-07T13:31:34.902Z,2.62
2017-05-07T13:34:04.442Z,1.96
2017-05-07T13:36:34.714Z,1.96
2017-05-07T13:39:04.585Z,7.40
2017-05-07T13:41:35.066Z,1.60
2017-05-07T13:44:04.606Z,1.80
2017-05-07T13:46:34.138Z,1.60
2017-05-07T13:49:03.681Z,1.04
2017-05-07T13:51:33.218Z,1.40
2017-05-07T13:54:02.754Z,4.26
2017-05-07T13:56:32.292Z,1.44
2017-05-07T13:59:01.825Z,1.18
2017-05-07T14:01:31.353Z,1.32
2017-05-07T14:04:01.629Z,1.34
2017-05-07T14:06:31.169Z,1.32
2017-05-07T14:09:00.705Z,1.84
2017-05-07T14:11:30.261Z,1.64
2017-05-07T14:13:59.818Z,3.70
2017-05-07T14:16:29.357Z,5.50
2017-05-07T14:18:58.893Z,1.54
2017-05-07T14:21:28.429Z,1.20
2017-05-07T14:23:57.957Z,1.36
2017-05-07T14:26:27.517Z,1.30
2017-05-07T14:28:57.781Z,1.14
2017-05-07T14:31:27.341Z,1.14
2017-05-07T14:33:56.877Z,1.40
2017-05-07T14:36:26.413Z,1.40
2017-05-07T14:38:55.946Z,3.62
2017-05-07T14:41:25.493Z,1.00
2017-05-07T14:43:55.029Z,1.80
2017-05-07T14:46:24.569Z,1.36
2017-05-07T14:48:54.112Z,1.00
2017-05-07T14:51:23.644Z,1.08
2017-05-07T14:53:53.182Z,0.70
2017-05-07T14:56:22.713Z,1.12
2017-05-07T14:58:52.981Z,0.86
2017-05-07T15:01:22.533Z,1.10
2017-05-07T15:03:52.804Z,1.50
2017-05-07T15:06:23.676Z,0.96
2017-05-07T15:08:53.200Z,1.10
2017-05-07T15:11:22.741Z,1.00
2017-05-07T15:13:52.268Z,0.98
2017-05-07T15:16:21.813Z,6.98
2017-05-07T15:18:52.093Z,1.22
2017-05-07T15:21:21.624Z,1.14
2017-05-07T15:23:51.156Z,1.76
2017-05-07T15:26:20.688Z,0.82
2017-05-07T15:28:50.221Z,1.34
2017-05-07T15:31:19.752Z,1.00
2017-05-07T15:33:50.052Z,0.84
2017-05-07T15:36:19.576Z,0.70
2017-05-07T15:38:49.872Z,0.80
2017-05-07T15:41:19.388Z,0.96
2017-05-07T15:43:48.936Z,0.92
2017-05-07T15:46:18.471Z,0.90
2017-05-07T15:48:48.008Z,1.06
2017-05-07T15:51:17.548Z,1.04
2017-05-07T15:53:47.088Z,0.82
2017-05-07T15:56:16.616Z,1.10
2017-05-07T15:58:46.161Z,0.80
2017-05-07T16:01:15.687Z,1.04
2017-05-07T16:03:45.228Z,0.98
2017-05-07T16:06:14.772Z,2.70
2017-05-07T16:08:44.308Z,0.78
2017-05-07T16:11:13.844Z,1.00
2017-05-07T16:13:43.443Z,1.30
2017-05-07T16:16:37.463Z,1.70
2017-05-07T16:22:28.456Z,1.20
2017-05-07T16:25:27.776Z,2.02
2017-05-07T16:28:21.867Z,0.84
2017-05-07T16:30:51.151Z,1.32
2017-05-07T16:33:20.455Z,2.22
2017-05-07T16:35:49.751Z,1.36
2017-05-07T16:38:19.051Z,1.52
2017-05-07T16:40:48.352Z,1.40
2017-05-07T16:43:17.659Z,1.02
2017-05-07T16:45:46.952Z,1.06
2017-05-07T16:48:16.243Z,1.16
2017-05-07T16:50:45.543Z,1.64
2017-05-07T16:53:14.839Z,0.70
2017-05-07T16:55:44.135Z,1.64
2017-05-07T16:58:13.446Z,1.00
2017-05-07T17:00:42.743Z,0.70
2017-05-07T17:03:17.851Z,0.90
2017-05-07T17:05:47.144Z,0.80
2017-05-07T17:08:16.783Z,1.80
2017-05-07T17:10:46.091Z,1.06
2017-05-07T17:13:15.379Z,1.00
2017-05-07T17:15:44.671Z,1.20
2017-05-07T17:18:13.971Z,1.02
2017-05-07T17:20:43.272Z,1.28
2017-05-07T17:23:12.751Z,1.44
2017-05-07T17:25:42.979Z,1.20
2017-05-07T17:28:12.323Z,1.74
2017-05-07T17:30:42.623Z,1.64
2017-05-07T17:33:12.161Z,1.50
2017-05-07T17:35:42.426Z,1.40
2017-05-07T17:38:11.962Z,1.50
2017-05-07T17:40:41.507Z,1.88
2017-05-07T17:43:11.043Z,1.62
2017-05-07T17:45:40.592Z,1.98
2017-05-07T17:48:10.103Z,3.00
2017-05-07T17:50:40.386Z,2.76
2017-05-07T17:53:10.039Z,2.22
2017-05-07T17:55:39.603Z,2.38
2017-05-07T17:58:09.106Z,2.18
2017-05-07T18:00:38.634Z,2.60
2017-05-07T18:03:08.910Z,2.66
2017-05-07T18:05:38.446Z,2.70
2017-05-07T18:08:07.982Z,2.58
2017-05-07T18:10:38.259Z,2.94
2017-05-07T18:13:07.808Z,2.14
2017-05-07T18:15:38.085Z,3.22
2017-05-07T18:18:07.634Z,3.20
2017-05-07T18:20:37.907Z,2.90
2017-05-07T18:23:07.451Z,2.84
2017-05-07T18:25:37.739Z,2.82
2017-05-07T18:28:07.278Z,3.24
2017-05-07T18:30:37.555Z,2.64
2017-05-07T18:33:07.102Z,3.62
2017-05-07T18:35:37.380Z,3.34
2017-05-07T18:38:06.922Z,4.08
2017-05-07T18:40:36.462Z,4.42
2017-05-07T18:43:06.003Z,5.26
2017-05-07T18:45:35.558Z,4.13
2017-05-07T18:48:05.097Z,4.58
2017-05-07T18:50:34.642Z,3.82
2017-05-07T18:53:04.183Z,3.85
2017-05-07T18:55:33.734Z,3.35
2017-05-07T18:58:03.274Z,2.80
2017-05-07T19:00:33.565Z,4.05
2017-05-07T19:03:03.110Z,3.97
2017-05-07T19:05:32.670Z,4.18
2017-05-07T19:08:02.222Z,4.18
2017-05-07T19:10:32.609Z,4.63
2017-05-07T19:13:02.162Z,11.52
2017-05-07T19:15:31.706Z,8.32
2017-05-07T19:18:01.245Z,10.05
2017-05-07T19:20:31.541Z,6.92
2017-05-07T19:23:02.033Z,5.52
2017-05-07T19:25:31.590Z,4.00
2017-05-07T19:28:01.130Z,4.45
2017-05-07T19:30:30.669Z,5.00
2017-05-07T19:33:00.549Z,5.23
2017-05-07T19:35:30.253Z,5.17
2017-05-07T19:38:00.603Z,4.75
2017-05-07T19:40:30.257Z,3.98
2017-05-07T19:42:59.981Z,3.88
2017-05-07T19:45:29.889Z,3.70
2017-05-07T19:47:59.730Z,3.62
2017-05-07T19:50:29.453Z,5.75
2017-05-07T19:52:59.349Z,4.65
2017-05-07T19:55:29.077Z,3.90
2017-05-07T19:57:59.033Z,4.68
2017-05-07T20:00:28.941Z,4.13
2017-05-07T20:02:58.593Z,4.58
2017-05-07T20:05:28.233Z,5.32
2017-05-07T20:07:58.397Z,4.85
2017-05-07T20:10:28.292Z,5.25
2017-05-07T20:12:58.769Z,5.00
2017-05-07T20:15:28.596Z,4.80
2017-05-07T20:17:58.969Z,5.48
2017-05-07T20:20:29.739Z,4.80
2017-05-07T20:23:00.305Z,4.93
2017-05-07T20:25:30.260Z,3.88
2017-05-07T20:28:00.281Z,4.40
2017-05-07T20:30:30.525Z,4.88
2017-05-07T20:33:00.316Z,4.38
2017-05-07T20:35:30.260Z,5.10
2017-05-07T20:38:00.433Z,4.27
2017-05-07T20:40:30.044Z,4.03
2017-05-07T20:43:00.384Z,4.05
2017-05-07T20:45:29.980Z,3.30
2017-05-07T20:47:59.521Z,3.75
2017-05-07T20:50:29.581Z,3.83
2017-05-07T20:52:59.984Z,3.63
2017-05-07T20:55:29.520Z,3.87
2017-05-07T20:57:59.081Z,3.10
2017-05-07T21:00:29.040Z,4.02
2017-05-07T21:02:58.768Z,3.92
2017-05-07T21:05:28.848Z,3.60
2017-05-07T21:07:59.189Z,3.17
2017-05-07T21:10:29.308Z,4.02
2017-05-07T21:12:59.153Z,3.65
2017-05-07T21:15:29.297Z,3.25
2017-05-07T21:17:58.908Z,3.92
2017-05-07T21:20:29.839Z,3.90
2017-05-07T21:23:00.012Z,4.68
2017-05-07T21:25:31.204Z,4.22
2017-05-07T21:28:01.464Z,4.03
2017-05-07T21:30:31.683Z,4.40
2017-05-07T21:33:01.764Z,4.28
2017-05-07T21:35:31.827Z,4.13
2017-05-07T21:38:01.796Z,4.77
2017-05-07T21:40:32.899Z,4.17
2017-05-07T21:43:03.707Z,5.08
2017-05-07T21:45:34.091Z,4.53
2017-05-07T21:48:04.708Z,3.78
2017-05-07T21:50:34.619Z,5.53
2017-05-07T21:53:05.004Z,5.57
2017-05-07T21:55:35.783Z,4.83
2017-05-07T21:58:06.435Z,5.20
2017-05-07T22:00:36.452Z,5.32
2017-05-07T22:03:08.451Z,5.45
2017-05-07T22:05:38.271Z,6.02
2017-05-07T22:08:08.091Z,5.23
2017-05-07T22:10:38.639Z,5.67
2017-05-07T22:13:09.112Z,5.72
2017-05-07T22:15:38.836Z,5.37
2017-05-07T22:18:08.968Z,5.42
2017-05-07T22:20:38.855Z,5.70
2017-05-07T22:23:09.271Z,5.55
2017-05-07T22:25:39.154Z,5.50
2017-05-07T22:28:09.611Z,5.62
2017-05-07T22:30:39.491Z,4.95
2017-05-07T22:33:10.047Z,6.03
2017-05-07T22:35:40.303Z,6.08
2017-05-07T22:38:10.055Z,5.52
2017-05-07T22:40:40.267Z,6.52
2017-05-07T22:43:10.088Z,6.15
2017-05-07T22:45:40.463Z,6.00
2017-05-07T22:48:10.399Z,6.87
2017-05-07T22:50:40.427Z,6.67
2017-05-07T22:53:10.535Z,5.68
2017-05-07T22:55:41.507Z,6.42
2017-05-07T22:58:11.739Z,6.80
2017-05-07T23:00:41.698Z,6.30
2017-05-07T23:03:11.659Z,7.22
2017-05-07T23:05:41.643Z,7.23
2017-05-07T23:08:12.159Z,8.02
2017-05-07T23:10:42.534Z,7.00
2017-05-07T23:13:13.034Z,7.48
2017-05-07T23:15:43.275Z,7.97
2017-05-07T23:18:14.090Z,7.90
2017-05-07T23:20:44.418Z,9.13
2017-05-07T23:23:15.035Z,8.25
2017-05-07T23:25:44.842Z,10.14
2017-05-07T23:28:15.426Z,10.67
2017-05-07T23:30:45.606Z,11.85
2017-05-07T23:33:16.012Z,11.28
2017-05-07T23:35:46.158Z,12.52
2017-05-07T23:38:16.306Z,13.10
2017-05-07T23:40:46.502Z,11.37
2017-05-07T23:43:16.666Z,14.52
2017-05-07T23:45:46.902Z,15.75
2017-05-07T23:48:17.193Z,12.85
2017-05-07T23:50:47.458Z,15.23
2017-05-07T23:53:17.394Z,14.15
2017-05-07T23:55:48.127Z,14.57
2017-05-07T23:58:18.926Z,16.12
